Time;durP1;ratioP1;P1;durP2;ratioP2;P2;SDS_P1;SDS_P2;PMS_P1;PMS_P2;Temp;Humidity;BMP_temperature;BMP_pressure;BME280_temperature;BME280_humidity;BME280_pressure;Samples;Min_cycle;Max_cycle;Signal;HPM_P1;HPM_P2
2023/09/04 00:01:24;;;;;;;9.32;5.43;;;;;;;-144.05;84.36;56935.91;5038344;28;20026;-82
2023/09/04 00:03:51;;;;;;;8.82;5.25;;;;;;;-144.05;84.59;56967.78;5035268;28;20026;-82
2023/09/04 00:06:16;;;;;;;6.95;5.22;;;9.60;99.90;;;-144.05;84.50;56952.91;5034877;28;20064;-81
2023/09/04 00:08:43;;;;;;;7.00;5.15;;;9.30;99.90;;;-144.05;84.76;56944.41;5034924;28;20026;-82
2023/09/04 00:11:09;;;;;;;7.90;4.78;;;;;;;-144.05;84.77;56935.91;5034420;28;20030;-84
2023/09/04 00:13:36;;;;;;;7.68;5.25;;;9.40;99.90;;;-144.05;84.80;56950.78;5049856;28;20116;-82
2023/09/04 00:16:02;;;;;;;7.03;5.30;;;9.90;99.90;;;-144.05;84.84;56961.41;5034824;28;20029;-82
2023/09/04 00:18:30;;;;;;;7.32;5.30;;;15.40;99.90;;;-144.05;84.78;56950.78;5034494;28;20029;-83
2023/09/04 00:20:56;;;;;;;7.32;4.90;;;15.70;99.90;;;-144.05;84.94;56948.66;5034501;28;20497;-81
2023/09/04 00:23:22;;;;;;;7.53;5.10;;;10.60;99.90;;;-144.05;84.92;56925.28;5034339;28;20079;-80
2023/09/04 00:25:48;;;;;;;8.70;4.88;;;;;;;-144.05;85.05;56965.66;5051156;28;20032;-85
2023/09/04 00:28:14;;;;;;;17.30;6.68;;;15.40;99.90;;;-144.05;85.21;56961.41;5054613;28;20033;-85
2023/09/04 00:30:42;;;;;;;10.85;5.78;;;;;;;-144.05;85.16;56948.66;5038152;28;20087;-84
2023/09/04 00:33:08;;;;;;;11.95;5.93;;;;;;;-144.05;85.12;56944.41;5053144;28;20029;-85
2023/09/04 00:35:34;;;;;;;13.45;6.75;;;;;;;-144.05;85.22;56925.28;5036336;28;20029;-82
2023/09/04 00:38:01;;;;;;;15.98;6.20;;;15.40;99.90;;;-144.05;85.03;56946.53;5052358;28;20029;-83
2023/09/04 00:40:28;;;;;;;13.05;6.07;;;;;;;-144.05;85.32;56959.28;5035511;28;20041;-82
2023/09/04 00:42:53;;;;;;;7.60;5.75;;;15.20;99.90;;;-144.05;85.53;56938.03;5036886;28;20090;-86
2023/09/04 00:45:20;;;;;;;8.55;6.35;;;;;;;-144.05;85.38;56965.66;5036801;28;20057;-81
2023/09/04 00:47:46;;;;;;;9.25;5.28;;;15.50;99.90;;;-144.05;85.32;56946.53;5036578;28;20501;-84
2023/09/04 00:50:22;;;;;;;6.88;5.18;;;12.10;99.90;;;-144.05;85.25;56938.03;5035738;28;20029;-83
2023/09/04 00:52:58;;;;;;;7.00;4.75;;;15.30;99.90;;;-144.05;85.54;56948.66;5035728;28;20056;-83
2023/09/04 00:55:25;;;;;;;10.23;4.88;;;15.70;99.90;;;-144.05;85.54;56967.78;5035447;28;20025;-85
2023/09/04 00:57:52;;;;;;;8.60;5.93;;;8.90;99.90;;;-144.05;85.82;56963.53;5050351;28;20036;-85
2023/09/04 01:00:23;;;;;;;9.00;6.47;;;9.10;99.90;;;-144.05;85.61;56946.53;5033308;28;20060;-82
2023/09/04 01:02:50;;;;;;;6.35;5.43;;;8.70;99.90;;;-144.05;85.81;56963.53;5034605;28;20396;-83
2023/09/04 01:05:17;;;;;;;7.68;4.88;;;15.80;99.90;;;-144.05;85.90;56955.03;5034432;28;20044;-82
2023/09/04 01:07:44;;;;;;;7.32;5.47;;;;;;;-144.05;85.88;56931.66;5049801;28;20029;-85
2023/09/04 01:10:13;;;;;;;8.18;5.82;;;15.30;99.90;;;-144.05;85.94;56946.53;5033266;28;20389;-82
2023/09/04 01:12:46;;;;;;;8.00;5.75;;;;;;;-144.05;86.04;56944.41;5034043;28;20079;-84
2023/09/04 01:15:14;;;;;;;8.07;5.20;;;12.10;99.90;;;-144.05;85.90;56967.78;5032864;28;20075;-84
2023/09/04 01:17:43;;;;;;;7.80;4.95;;;9.10;99.90;;;-144.05;85.84;56959.28;5034367;28;20034;-82
2023/09/04 01:20:27;;;;;;;9.13;5.60;;;8.70;99.90;;;-144.05;86.17;56959.28;5040419;28;20115;-84
2023/09/04 01:22:57;;;;;;;8.85;5.65;;;12.00;99.90;;;-144.05;86.03;56950.78;5033093;28;20030;-83
2023/09/04 01:25:48;;;;;;;7.70;5.05;;;15.00;99.90;;;-144.05;86.07;56959.28;5034279;28;20103;-82
2023/09/04 01:28:31;;;;;;;11.77;6.07;;;9.10;99.90;;;-144.05;86.14;56933.78;5034035;28;20037;-82
2023/09/04 01:31:04;;;;;;;18.95;8.80;;;;;;;-144.05;86.07;56946.53;5048965;28;20049;-83
2023/09/04 01:33:39;;;;;;;19.70;8.60;;;15.40;99.90;;;-144.05;86.14;56933.78;5034013;28;20033;-81
2023/09/04 01:36:14;;;;;;;20.10;8.15;;;15.50;99.90;;;-144.05;86.06;56950.78;5034027;28;20037;-83
2023/09/04 01:38:43;;;;;;;18.02;7.70;;;8.80;99.90;;;-144.05;86.10;56967.78;5034537;28;20033;-83
2023/09/04 01:41:10;;;;;;;13.63;7.07;;;;;;;-144.05;86.17;56946.53;5034179;28;20042;-83
2023/09/04 01:43:36;;;;;;;17.33;7.60;;;9.10;99.90;;;-144.05;85.97;56944.41;5033303;28;20049;-82
2023/09/04 01:46:02;;;;;;;12.32;6.13;;;15.30;99.90;;;-144.05;86.02;56940.16;5032438;28;20025;-84
2023/09/04 01:48:28;;;;;;;8.48;5.88;;;8.30;99.90;;;-144.05;86.21;56938.03;5033680;28;20484;-83
2023/09/04 01:50:54;;;;;;;12.18;6.65;;;15.00;99.90;;;-144.05;86.12;56946.53;5032278;28;20044;-83
2023/09/04 01:53:22;;;;;;;18.10;7.95;;;15.20;99.90;;;-144.05;86.27;56965.66;5031473;28;20025;-84
2023/09/04 01:55:49;;;;;;;15.10;7.97;;;15.10;99.90;;;-144.05;85.74;56942.28;5048001;28;20037;-83
2023/09/04 01:58:15;;;;;;;20.92;8.35;;;;;;;-144.05;85.84;56950.78;5031442;28;20123;-81
2023/09/04 02:00:43;;;;;;;21.55;9.00;;;;;;;-144.05;85.72;56965.66;5033282;28;20029;-82
2023/09/04 02:03:09;;;;;;;22.17;9.48;;;;;;;-144.05;85.87;56946.53;5034614;28;20029;-81
2023/09/04 02:05:39;;;;;;;18.05;8.82;;;15.10;99.90;;;-144.05;86.04;56955.03;5055031;28;20033;-82
2023/09/04 02:08:07;;;;;;;15.63;8.35;;;9.10;99.90;;;-144.05;86.12;56961.41;5053232;28;20029;-82
2023/09/04 02:10:36;;;;;;;13.27;7.97;;;11.40;99.90;;;-144.05;86.33;56933.78;5053316;28;20029;-84
2023/09/04 02:13:03;;;;;;;16.63;7.60;;;15.50;99.90;;;-144.05;86.27;56974.16;5035776;28;20032;-82
2023/09/04 02:15:31;;;;;;;12.02;6.80;;;11.30;99.90;;;-144.05;86.14;56963.53;5033719;28;20035;-83
2023/09/04 02:18:02;;;;;;;16.65;7.85;;;;;;;-144.05;86.49;56955.03;5031671;28;20032;-83
2023/09/04 02:20:30;;;;;;;14.30;7.13;;;11.30;99.90;;;-144.05;86.34;56980.53;5048835;28;20036;-82
2023/09/04 02:22:58;;;;;;;7.82;5.95;;;15.40;99.90;;;-144.05;86.17;56959.28;5048844;28;20025;-83
2023/09/04 02:25:24;;;;;;;6.80;5.43;;;8.80;99.90;;;-144.05;86.06;56963.53;5031831;28;20420;-84
2023/09/04 02:27:51;;;;;;;8.38;5.28;;;15.10;99.90;;;-144.05;86.09;56916.81;5032711;28;20408;-83
2023/09/04 02:30:17;;;;;;;10.60;6.10;;;8.70;99.90;;;-144.05;86.20;56952.91;5032827;28;20033;-83
2023/09/04 02:32:44;;;;;;;8.73;5.50;;;;;;;-144.05;86.12;56948.66;5031613;28;20556;-83
2023/09/04 02:35:10;;;;;;;7.65;5.35;;;9.00;99.90;;;-144.05;86.20;56967.78;5033293;28;20029;-83
2023/09/04 02:37:36;;;;;;;7.35;4.88;;;;;;;-144.05;86.24;56927.41;5047756;28;20084;-84
2023/09/04 02:40:05;;;;;;;5.85;4.60;;;8.80;99.90;;;-144.05;86.37;56957.16;5047847;28;20034;-82
2023/09/04 02:42:32;;;;;;;6.72;5.18;;;9.00;99.90;;;-144.05;86.31;56963.53;5032674;28;20051;-84
2023/09/04 02:44:58;;;;;;;6.93;5.53;;;;;;;-144.05;86.36;56946.53;5048083;28;20021;-83
2023/09/04 02:47:24;;;;;;;7.40;5.50;;;;;;;-144.05;86.44;56927.41;5048334;28;20029;-83
2023/09/04 02:49:51;;;;;;;8.43;5.50;;;;;;;-144.05;86.57;56974.16;5033281;28;20135;-83
2023/09/04 02:52:17;;;;;;;11.40;6.28;;;;;;;-144.05;86.54;56938.03;5031687;28;20025;-82
2023/09/04 02:54:43;;;;;;;9.88;5.68;;;15.00;99.90;;;-144.05;86.33;56942.28;5043452;28;20354;-83
2023/09/04 02:57:09;;;;;;;7.45;5.13;;;15.20;99.90;;;-144.05;86.53;56978.41;5047927;28;20099;-83
2023/09/04 02:59:36;;;;;;;6.15;4.85;;;;;;;-144.05;86.66;56961.41;5032463;28;20077;-84
2023/09/04 03:02:02;;;;;;;7.28;5.05;;;14.90;99.90;;;-144.05;86.69;56944.41;5048187;28;20469;-82
2023/09/04 03:04:29;;;;;;;6.95;5.57;;;8.30;99.90;;;-144.05;86.62;56942.28;5032653;28;20037;-83
2023/09/04 03:06:55;;;;;;;8.73;5.72;;;15.30;99.90;;;-144.05;86.74;56940.16;5036345;28;20041;-81
2023/09/04 03:09:20;;;;;;;9.73;5.90;;;9.20;99.90;;;-144.05;86.77;56967.78;5036053;28;20547;-81
2023/09/04 03:11:46;;;;;;;6.75;5.03;;;8.60;99.90;;;-144.05;86.76;56942.28;5051750;28;20135;-83
2023/09/04 03:14:13;;;;;;;6.53;4.97;;;;;;;-144.05;86.70;56955.03;5051401;28;20025;-84
2023/09/04 03:16:39;;;;;;;9.27;5.45;;;15.00;99.90;;;-144.05;87.36;56935.91;5036047;28;20485;-82
2023/09/04 03:19:05;;;;;;;13.07;6.03;;;;;;;-144.05;86.97;56955.03;5034231;28;20172;-82
2023/09/04 03:21:32;;;;;;;8.57;6.18;;;14.90;99.90;;;-144.05;86.84;56929.53;5034163;28;20367;-81
2023/09/04 03:23:58;;;;;;;9.55;6.63;;;;;;;-144.05;86.95;56946.53;5038167;28;20480;-83
2023/09/04 03:26:26;;;;;;;6.22;5.40;;;;;;;-144.05;86.70;56952.91;5038876;28;20044;-83
2023/09/04 03:28:51;;;;;;;9.68;5.82;;;14.50;99.90;;;-144.05;86.92;56944.41;5040424;28;20021;-83
2023/09/04 03:31:18;;;;;;;10.35;6.43;;;;;;;-144.05;86.70;56925.28;5056031;28;20095;-82
2023/09/04 03:33:44;;;;;;;10.32;6.15;;;;;;;-144.05;86.93;56950.78;5038460;28;20084;-83
2023/09/04 03:36:11;;;;;;;10.98;5.55;;;14.60;99.90;;;-144.05;86.91;56955.03;5039025;28;20033;-83
2023/09/04 03:38:39;;;;;;;7.93;6.22;;;9.30;99.90;;;-144.05;87.04;56940.16;5037138;28;20030;-85
2023/09/04 03:41:05;;;;;;;9.77;7.03;;;9.50;99.90;;;-144.05;86.83;56972.03;5037408;28;20025;-85
2023/09/04 03:43:34;;;;;;;8.57;5.95;;;8.70;99.90;;;-144.05;87.07;56963.53;5053796;28;20022;-85
2023/09/04 03:46:00;;;;;;;7.90;5.68;;;8.70;99.90;;;-144.05;86.99;56942.28;5037642;28;20032;-82
2023/09/04 03:48:27;;;;;;;7.53;4.60;;;8.90;99.90;;;-144.05;86.94;56916.81;5037366;28;20057;-85
2023/09/04 03:50:53;;;;;;;9.60;6.72;;;9.20;99.90;;;-144.05;87.24;56948.66;5054679;28;20079;-85
2023/09/04 03:53:19;;;;;;;10.30;5.88;;;;;;;-144.05;86.95;56938.03;5037884;28;20029;-84
2023/09/04 03:55:45;;;;;;;11.40;5.93;;;;;;;-144.05;86.95;56967.78;5032158;28;20030;-83
2023/09/04 03:58:12;;;;;;;8.48;5.60;;;;;;;-144.05;87.15;56942.28;5017657;28;20029;-82
2023/09/04 04:00:38;;;;;;;22.95;11.45;;;;;;;-144.05;87.10;56938.03;5017226;28;20057;-83
2023/09/04 04:03:04;;;;;;;25.92;12.70;;;14.40;99.90;;;-144.05;86.94;56948.66;5015263;28;20771;-83
2023/09/04 04:05:30;;;;;;;22.58;11.35;;;;;;;-144.05;86.98;56980.53;5015407;28;20057;-81
2023/09/04 04:07:56;;;;;;;19.98;10.50;;;;;;;-144.05;86.98;56961.41;5033454;28;20512;-81
2023/09/04 04:10:22;;;;;;;18.63;9.70;;;11.60;99.90;;;-144.05;87.33;56972.03;5045012;28;20034;-84
2023/09/04 04:12:53;;;;;;;16.60;8.77;;;14.80;99.90;;;-144.05;87.42;56957.16;5017878;28;20030;-84
2023/09/04 04:15:20;;;;;;;15.93;8.15;;;12.00;99.90;;;-144.05;87.25;56955.03;5015340;28;20078;-84
2023/09/04 04:17:45;;;;;;;11.90;8.23;;;10.50;99.90;;;-144.05;87.41;56948.66;5015994;28;20067;-84
2023/09/04 04:20:12;;;;;;;15.48;7.78;;;8.80;99.90;;;-144.05;87.50;56978.41;5016524;28;20026;-83
2023/09/04 04:22:42;;;;;;;11.65;8.10;;;15.00;99.90;;;-144.05;87.31;56969.91;5032003;28;20053;-83
2023/09/04 04:25:10;;;;;;;12.13;7.38;;;8.40;99.90;;;-144.05;87.23;56931.66;5014598;28;20112;-83
2023/09/04 04:27:36;;;;;;;10.30;6.63;;;8.60;99.90;;;-144.05;87.32;56946.53;5015998;28;20052;-81
2023/09/04 04:30:02;;;;;;;11.00;6.72;;;8.50;99.90;;;-144.05;87.43;56972.03;5016094;28;20477;-82
2023/09/04 04:32:29;;;;;;;16.25;7.03;;;;;;;-144.05;87.29;56969.91;5015244;28;20113;-82
2023/09/04 04:34:54;;;;;;;11.38;6.78;;;14.60;99.90;;;-144.05;87.37;56972.03;5015981;28;20022;-83
2023/09/04 04:37:20;;;;;;;7.95;5.90;;;14.50;99.90;;;-144.05;87.17;56931.66;5018360;28;20044;-82
2023/09/04 04:39:46;;;;;;;7.50;5.88;;;8.90;99.90;;;-144.05;87.51;56946.53;5017647;28;20034;-84
2023/09/04 04:42:12;;;;;;;12.18;6.40;;;;;;;-144.05;87.50;56950.78;5015986;28;20030;-82
2023/09/04 04:44:39;;;;;;;10.27;6.60;;;8.60;99.90;;;-144.05;87.62;56952.91;5018659;28;20034;-84
2023/09/04 04:47:11;;;;;;;13.00;6.88;;;8.40;99.90;;;-144.05;87.55;56933.78;5018606;28;20574;-82
2023/09/04 04:49:37;;;;;;;10.88;6.65;;;8.90;99.90;;;-144.05;87.48;56927.41;5017769;28;20030;-82
2023/09/04 04:52:03;;;;;;;8.13;6.53;;;8.40;99.90;;;-144.05;87.33;56950.78;5018346;28;20052;-84
2023/09/04 04:54:30;;;;;;;9.98;6.15;;;9.20;99.90;;;-144.05;87.47;56942.28;5016878;28;20018;-82
2023/09/04 04:56:56;;;;;;;11.23;6.43;;;8.40;99.90;;;-144.05;87.30;56961.41;5016033;28;20033;-83
2023/09/04 04:59:22;;;;;;;8.93;5.63;;;;;;;-144.05;87.38;56938.03;5017021;28;20120;-82
2023/09/04 05:01:48;;;;;;;8.80;6.13;;;;;;;-144.05;87.35;56963.53;5017012;28;20040;-81
2023/09/04 05:04:14;;;;;;;9.00;5.90;;;8.90;99.90;;;-144.05;87.19;56978.41;5017356;28;20037;-81
2023/09/04 05:06:40;;;;;;;7.20;5.95;;;;;;;-144.05;87.56;56959.28;5016312;28;20432;-78
2023/09/04 05:09:07;;;;;;;11.90;7.40;;;;;;;-144.05;87.36;56978.41;5016032;28;20400;-81
2023/09/04 05:11:32;;;;;;;13.00;9.07;;;8.50;99.90;;;-144.05;87.43;56963.53;5016129;28;20026;-81
2023/09/04 05:13:59;;;;;;;14.70;8.43;;;;;;;-144.05;87.37;56963.53;5015117;28;20030;-82
2023/09/04 05:16:27;;;;;;;12.13;8.48;;;10.50;99.90;;;-144.05;87.66;56961.41;5015332;28;20053;-81
2023/09/04 05:18:54;;;;;;;11.82;7.95;;;14.80;99.90;;;-144.05;87.52;56957.16;5017169;28;20046;-83
2023/09/04 05:21:20;;;;;;;9.95;7.70;;;8.60;99.90;;;-144.05;87.75;56972.03;5020980;28;20045;-82
2023/09/04 05:23:47;;;;;;;10.77;7.20;;;9.10;99.90;;;-144.05;87.68;56955.03;5019515;28;20096;-84
2023/09/04 05:26:14;;;;;;;10.52;6.90;;;;;;;-144.05;87.45;56940.16;5019211;28;20026;-83
2023/09/04 05:28:40;;;;;;;9.38;6.53;;;14.80;99.90;;;-144.05;87.65;56959.28;5033643;28;20041;-80
2023/09/04 05:31:06;;;;;;;9.45;6.72;;;;;;;-144.05;87.82;56957.16;5018192;28;20038;-84
2023/09/04 05:33:32;;;;;;;13.60;7.70;;;9.20;99.90;;;-144.05;87.79;56946.53;5018814;28;20088;-86
2023/09/04 05:35:58;;;;;;;9.65;6.57;;;;;;;-144.05;87.83;56948.66;5035707;28;20080;-83
2023/09/04 05:38:24;;;;;;;15.60;6.97;;;;;;;-144.05;87.81;56978.41;5021311;28;20030;-84
2023/09/04 05:40:55;;;;;;;11.07;6.65;;;14.90;99.90;;;-144.05;87.99;56961.41;5017911;28;20037;-83
2023/09/04 05:43:22;;;;;;;9.50;6.72;;;8.50;99.90;;;-144.05;87.58;56942.28;5019190;28;20060;-82
2023/09/04 05:45:49;;;;;;;10.18;6.70;;;8.60;99.90;;;-144.05;87.62;56974.16;5016183;28;20564;-83
2023/09/04 05:48:16;;;;;;;8.15;6.43;;;;;;;-144.05;87.57;56948.66;5015552;28;20048;-80
2023/09/04 05:50:41;;;;;;;9.60;7.30;;;15.00;99.90;;;-144.05;87.36;56912.56;5017843;28;20022;-84
2023/09/04 05:53:07;;;;;;;7.75;6.13;;;15.10;99.90;;;-144.05;87.43;56984.78;5032920;28;20382;-80
2023/09/04 05:55:36;;;;;;;12.15;6.93;;;9.10;99.90;;;-144.05;87.34;56921.06;5031095;28;20041;-82
2023/09/04 05:58:03;;;;;;;11.77;7.13;;;15.50;99.90;;;-144.05;87.88;56940.16;5036215;28;20025;-79
2023/09/04 06:00:29;;;;;;;8.13;6.10;;;15.30;99.90;;;-144.05;88.52;56963.53;5035310;28;20071;-79
2023/09/04 06:02:55;;;;;;;7.55;5.82;;;15.70;99.90;;;-144.05;89.01;56944.41;5035662;28;20026;-80
2023/09/04 06:05:21;;;;;;;6.97;5.43;;;15.20;99.90;;;-144.05;88.95;56950.78;5035303;28;20090;-83
2023/09/04 06:07:47;;;;;;;6.72;5.00;;;10.70;99.90;;;-144.05;88.82;56923.19;5049545;28;20131;-79
2023/09/04 06:10:13;;;;;;;7.75;5.93;;;10.80;99.90;;;-144.05;87.77;56940.16;5033879;28;20029;-82
2023/09/04 06:12:40;;;;;;;6.55;5.28;;;15.30;99.90;;;-144.05;87.04;56925.28;5034526;28;20032;-80
2023/09/04 06:15:07;;;;;;;7.75;5.00;;;15.40;99.90;;;-144.05;85.14;56940.16;5036047;28;20033;-81
2023/09/04 06:17:33;;;;;;;5.20;4.35;;;12.00;99.90;;;-144.05;83.47;56948.66;5033830;28;20105;-82
2023/09/04 06:19:59;;;;;;;5.75;4.32;;;16.00;99.90;;;-144.05;81.36;56957.16;5034165;28;20057;-80
2023/09/04 06:22:25;;;;;;;6.90;4.82;;;16.00;99.90;;;-144.05;79.24;56948.66;5036749;28;20716;-83
2023/09/04 06:24:50;;;;;;;7.65;5.28;;;16.30;99.90;;;-144.05;77.79;56963.53;5036479;28;20021;-82
2023/09/04 06:27:16;;;;;;;5.50;4.57;;;16.30;99.90;;;-144.05;76.12;56925.28;5036627;28;20574;-80
2023/09/04 06:29:42;;;;;;;5.35;4.07;;;;;;;-144.05;74.24;56989.00;5041327;28;20048;-82
2023/09/04 06:32:10;;;;;;;7.15;4.53;;;;;;;-144.05;72.55;56955.03;5039119;28;20089;-81
2023/09/04 06:34:36;;;;;;;7.55;4.20;;;16.90;99.90;;;-144.05;71.28;56980.53;5035367;28;20029;-81
2023/09/04 06:37:02;;;;;;;8.40;4.60;;;17.40;99.90;;;-144.05;69.85;56978.41;5036621;28;20032;-81
2023/09/04 06:39:28;;;;;;;6.53;4.50;;;15.90;99.90;;;-144.05;68.59;56967.78;5036513;28;20076;-80
2023/09/04 06:41:54;;;;;;;7.95;4.68;;;;;;;-144.05;67.76;56948.66;5041116;28;20025;-79
2023/09/04 06:44:20;;;;;;;7.80;4.70;;;18.10;99.90;;;-144.05;67.27;56946.53;5041039;28;20032;-82
2023/09/04 06:46:46;;;;;;;5.95;4.80;;;14.70;99.90;;;-144.05;67.20;56974.16;5041086;28;20037;-80
2023/09/04 06:49:13;;;;;;;8.77;5.15;;;14.70;99.90;;;-144.05;67.17;56974.16;5040777;28;20085;-79
2023/09/04 06:51:39;;;;;;;9.15;4.65;;;18.90;99.90;;;-144.05;67.16;56982.66;5038620;28;20515;-81
2023/09/04 06:54:05;;;;;;;8.65;5.65;;;18.70;99.90;;;-144.05;66.89;56961.41;5055529;28;20033;-80
2023/09/04 06:56:31;;;;;;;9.32;5.70;;;;;;;-144.05;66.57;56986.91;5040174;28;20033;-80
2023/09/04 06:58:57;;;;;;;11.15;5.30;;;;;;;-144.05;66.34;56972.03;5039907;28;20669;-82
2023/09/04 07:01:23;;;;;;;11.40;5.95;;;15.80;99.90;;;-144.05;65.37;56980.53;5038265;28;20033;-80
2023/09/04 07:03:49;;;;;;;9.10;6.20;;;15.70;99.90;;;-144.05;65.38;56986.91;5043559;28;20041;-82
2023/09/04 07:06:15;;;;;;;6.75;5.30;;;;;;;-144.05;64.93;56991.13;5039501;28;20404;-81
2023/09/04 07:08:41;;;;;;;10.07;6.00;;;20.10;99.90;;;-144.05;64.75;56969.91;5038414;28;20041;-83
2023/09/04 07:11:07;;;;;;;13.13;6.22;;;20.10;99.90;;;-144.05;64.34;56969.91;5040023;28;20033;-82
2023/09/04 07:13:33;;;;;;;6.93;5.60;;;;;;;-144.05;63.66;56999.63;5040290;28;20029;-82
2023/09/04 07:15:59;;;;;;;9.20;5.40;;;16.50;99.90;;;-144.05;63.70;56989.00;5039906;28;20116;-85
2023/09/04 07:18:25;;;;;;;8.57;5.57;;;20.10;99.90;;;-144.05;63.45;56984.78;5039775;28;20103;-82
2023/09/04 07:20:51;;;;;;;8.75;4.85;;;16.60;99.90;;;-144.05;63.28;57006.00;5039164;28;20025;-84
2023/09/04 07:23:18;;;;;;;11.20;5.38;;;20.70;99.90;;;-144.05;62.38;57006.00;5039294;28;20025;-84
2023/09/04 07:25:44;;;;;;;6.78;4.93;;;20.90;99.90;;;-144.05;62.31;56986.91;5038665;28;20485;-82
2023/09/04 07:28:10;;;;;;;10.18;4.65;;;21.20;99.90;;;-144.05;61.02;56984.78;5038297;28;20037;-82
2023/09/04 07:30:35;;;;;;;9.80;5.47;;;21.40;99.90;;;-144.05;59.83;57014.50;5037952;28;20040;-83
2023/09/04 07:33:02;;;;;;;7.03;4.60;;;17.30;99.90;;;-144.05;59.87;56974.16;5038520;28;20029;-80
2023/09/04 07:35:28;;;;;;;7.80;4.60;;;;;;;-144.05;57.23;57023.00;5054432;28;20037;-80
2023/09/04 07:37:54;;;;;;;6.00;4.20;;;21.50;99.90;;;-144.05;58.32;57027.25;5038418;28;20111;-81
2023/09/04 07:40:21;;;;;;;8.38;4.15;;;;;;;-144.05;57.99;57006.00;5038360;28;20485;-80
2023/09/04 07:42:47;;;;;;;7.55;4.00;;;;;;;-144.05;57.22;57029.38;5038790;28;20033;-80
2023/09/04 07:45:15;;;;;;;7.25;3.95;;;18.20;99.90;;;-144.05;56.29;57027.25;5053249;28;20091;-82
2023/09/04 07:47:40;;;;;;;7.80;3.47;;;18.80;99.90;;;-144.05;55.55;56989.00;5038012;28;20051;-81
2023/09/04 07:50:07;;;;;;;3.20;2.40;;;18.40;99.90;;;-144.05;54.94;57027.25;5037575;28;20533;-83
2023/09/04 07:52:33;;;;;;;4.35;2.97;;;18.70;99.90;;;-144.05;54.89;57033.63;5035365;28;20021;-79
2023/09/04 07:54:58;;;;;;;3.97;2.40;;;22.80;99.90;;;-144.05;54.58;57008.13;5037246;28;20073;-83
2023/09/04 07:57:25;;;;;;;4.78;2.22;;;;;;;-144.05;53.57;57054.88;5036062;28;20025;-83
2023/09/04 07:59:50;;;;;;;4.00;2.33;;;22.90;99.90;;;-144.05;52.63;57025.13;5036364;28;20481;-83
2023/09/04 08:02:16;;;;;;;2.47;1.88;;;19.90;99.90;;;-144.05;52.04;57061.22;5037780;28;20041;-82
2023/09/04 08:04:42;;;;;;;3.88;2.50;;;19.60;99.90;;;-144.05;50.91;57050.63;5043137;28;20026;-82
2023/09/04 08:07:08;;;;;;;5.55;2.20;;;;;;;-144.05;50.60;57031.50;5045518;28;20056;-82
2023/09/04 08:09:34;;;;;;;3.58;1.80;;;20.00;99.90;;;-144.05;50.75;57078.22;5044661;28;20497;-80
2023/09/04 08:12:00;;;;;;;2.63;2.00;;;19.90;99.90;;;-144.05;51.10;57061.22;5048601;28;20048;-81
2023/09/04 08:14:26;;;;;;;5.07;2.33;;;20.50;99.90;;;-144.05;50.41;57082.47;5043515;28;20025;-80
2023/09/04 08:16:52;;;;;;;3.55;2.20;;;20.50;99.90;;;-144.05;48.96;57078.22;5053916;28;20043;-82
2023/09/04 08:19:17;;;;;;;3.33;2.00;;;24.50;99.90;;;-144.05;46.69;57071.84;5035269;28;20057;-79
2023/09/04 08:21:43;;;;;;;4.50;2.05;;;20.30;99.90;;;-144.05;44.82;57065.47;5036163;28;20030;-83
2023/09/04 08:24:09;;;;;;;2.35;1.77;;;20.70;99.90;;;-144.05;43.91;57052.75;5035537;28;20057;-83
2023/09/04 08:26:35;;;;;;;3.28;2.28;;;24.90;99.90;;;-144.05;43.29;57069.72;5036387;28;20072;-82
2023/09/04 08:29:01;;;;;;;6.68;2.35;;;24.20;99.90;;;-144.05;42.43;57076.09;5051586;28;20033;-83
2023/09/04 08:31:27;;;;;;;3.00;1.70;;;;;;;-144.05;41.89;57090.97;5036387;28;20021;-82
2023/09/04 08:33:53;;;;;;;3.22;2.00;;;21.30;99.90;;;-144.05;39.63;57076.09;5037309;28;20029;-81
2023/09/04 08:36:18;;;;;;;3.05;1.67;;;25.40;99.90;;;-144.05;37.96;57114.34;5051803;28;20025;-84
2023/09/04 08:38:45;;;;;;;4.05;1.77;;;;;;;-144.05;38.01;57116.47;5036656;28;20108;-81
2023/09/04 08:41:21;;;;;;;2.53;1.83;;;25.00;99.90;;;-144.05;37.84;57069.72;5036942;28;20059;-80
2023/09/04 08:43:49;;;;;;;2.60;1.55;;;21.50;99.90;;;-144.05;36.75;57090.97;5036001;28;20064;-80
2023/09/04 08:46:16;;;;;;;2.45;1.50;;;24.10;99.90;;;-144.05;36.93;57105.84;5035450;28;20041;-83
2023/09/04 08:48:46;;;;;;;3.38;1.40;;;25.60;99.90;;;-144.05;36.49;57110.09;5034771;28;20030;-82
2023/09/04 08:51:14;;;;;;;3.95;1.70;;;21.60;99.90;;;-144.05;36.32;57105.84;5050185;28;20591;-82
2023/09/04 08:53:40;;;;;;;2.22;1.38;;;;;;;-144.05;35.36;57080.34;5034548;28;20033;-82
2023/09/04 08:56:07;;;;;;;2.78;1.58;;;;;;;-144.05;36.17;57093.09;5030686;28;20044;-83
2023/09/04 08:58:33;;;;;;;5.70;1.70;;;;;;;-144.05;36.22;57097.34;5017600;28;20044;-81
2023/09/04 09:01:00;;;;;;;1.92;1.42;;;21.80;99.90;;;-144.05;35.55;57103.72;5016466;28;20400;-81
2023/09/04 09:03:26;;;;;;;2.60;1.65;;;21.70;99.90;;;-144.05;35.40;57144.06;5016406;28;20088;-83
2023/09/04 09:05:55;;;;;;;2.15;1.33;;;24.80;99.90;;;-144.05;34.90;57137.69;5016231;28;20022;-82
2023/09/04 09:08:24;;;;;;;4.43;2.00;;;26.00;99.90;;;-144.05;35.69;57129.22;5016059;28;20024;-81
2023/09/04 09:10:52;;;;;;;1.70;1.45;;;26.70;99.90;;;-144.05;35.09;57139.81;5014784;28;20430;-82
2023/09/04 09:13:19;;;;;;;3.40;1.85;;;;;;;-144.05;34.49;57131.31;5015945;28;20038;-83
2023/09/04 09:15:45;;;;;;;1.80;1.40;;;22.20;99.90;;;-144.05;33.79;57097.34;5016465;28;20038;-80
2023/09/04 09:18:11;;;;;;;3.08;1.50;;;26.20;99.90;;;-144.05;33.56;57129.22;5030997;28;20029;-81
2023/09/04 09:20:42;;;;;;;3.95;1.67;;;25.30;99.90;;;-144.05;34.58;57144.06;5014995;28;20038;-81
2023/09/04 09:23:08;;;;;;;3.35;1.60;;;26.20;99.90;;;-144.05;33.73;57122.84;5013980;28;20033;-82
2023/09/04 09:25:37;;;;;;;6.22;1.88;;;25.40;99.90;;;-144.05;34.57;57150.44;5013984;28;20026;-82
2023/09/04 09:28:07;;;;;;;5.63;1.92;;;26.50;99.90;;;-144.05;34.08;57131.31;5018847;28;20671;-84
2023/09/04 09:30:42;;;;;;;2.90;1.70;;;25.60;99.90;;;-144.05;34.53;57141.94;5015861;28;20030;-81
2023/09/04 09:33:16;;;;;;;;;;;25.60;99.90;;;-144.05;35.17;57158.94;5016767;28;20037;-79
2023/09/04 09:35:44;;;;;;;4.57;1.80;;;;;;;-144.05;35.19;57182.31;5014022;28;19909;-82
2023/09/04 09:38:10;;;;;;;3.75;1.80;;;27.30;99.90;;;-144.05;34.17;57161.06;5015059;28;20152;-84
2023/09/04 09:40:37;;;;;;;2.85;1.90;;;27.60;99.90;;;-144.05;34.11;57163.19;5014830;28;20481;-83
2023/09/04 09:43:03;;;;;;;2.20;1.67;;;27.60;99.90;;;-144.05;34.17;57163.19;5015618;28;20437;-82
2023/09/04 09:45:34;;;;;;;2.88;1.40;;;27.50;99.90;;;-144.05;34.73;57184.44;5015133;28;20034;-81
2023/09/04 09:48:11;;;;;;;3.28;1.90;;;23.20;99.90;;;-144.05;33.98;57180.19;5015848;28;20030;-81
2023/09/04 09:50:40;;;;;;;2.17;1.88;;;27.80;99.90;;;-144.05;34.14;57192.94;5017180;28;20131;-83
2023/09/04 09:53:05;;;;;;;2.95;1.73;;;27.00;99.90;;;-144.05;33.58;57173.81;5033287;28;20026;-81
2023/09/04 09:55:34;;;;;;;3.33;1.90;;;27.60;99.90;;;-144.05;34.99;57141.94;5030014;28;20088;-83
2023/09/04 09:58:03;;;;;;;6.32;2.08;;;27.40;99.90;;;-144.05;34.51;57173.81;5034348;28;20025;-80
2023/09/04 10:00:29;;;;;;;1.92;1.60;;;27.90;99.90;;;-144.05;33.73;57216.28;5034374;28;20032;-84
2023/09/04 10:02:55;;;;;;;2.05;1.58;;;28.10;99.90;;;-144.05;33.41;57205.66;5034723;28;20112;-82
2023/09/04 10:05:28;;;;;;;2.30;1.77;;;24.20;99.30;;;-144.05;32.72;57218.41;5049541;28;20036;-82
2023/09/04 10:08:01;;;;;;;3.03;1.70;;;28.40;99.90;;;-144.05;32.75;57203.56;5035613;28;20026;-83
2023/09/04 10:10:36;;;;;;;3.53;1.80;;;;;;;-144.05;32.91;57182.31;5050017;28;20037;-84
2023/09/04 10:13:13;;;;;;;;;;;26.80;99.90;;;-144.05;33.27;57188.69;5034906;28;20030;-85
2023/09/04 10:15:46;;;;;;;2.97;2.10;;;28.20;99.90;;;-144.05;33.33;57209.91;5033346;28;20584;-81
2023/09/04 10:18:26;;;;;;;1.88;1.50;;;27.00;99.60;;;-144.05;33.24;57201.44;5033478;28;20040;-81
2023/09/04 10:20:55;;;;;;;4.35;1.58;;;28.10;99.90;;;-144.05;33.06;57235.41;5049217;28;20030;-82
2023/09/04 10:23:32;;;;;;;2.92;1.55;;;27.20;98.50;;;-144.05;32.57;57218.41;5035114;28;20546;-82